Time;durP1;ratioP1;P1;durP2;ratioP2;P2;SDS_P1;SDS_P2;PMS_P1;PMS_P2;Temp;Humidity;BMP_temperature;BMP_pressure;BME280_temperature;BME280_humidity;BME280_pressure;Samples;Min_cycle;Max_cycle;Signal;HPM_P1;HPM_P2
2022/09/30 00:02:47;;;;;;;9.82;5.80;;;;;;;9.75;100.00;100821.06;10586914;28;20028;-71
2022/09/30 00:07:47;;;;;;;7.85;6.30;;;;;;;9.63;100.00;100810.97;10568407;28;20118;-72
2022/09/30 00:12:47;;;;;;;11.80;5.53;;;;;;;9.59;100.00;100810.53;10586778;28;20031;-72
2022/09/30 00:17:48;;;;;;;8.90;6.07;;;;;;;9.58;100.00;100826.94;10586202;28;20039;-71
2022/09/30 00:22:48;;;;;;;7.68;6.03;;;;;;;9.61;100.00;100815.75;10584470;28;20035;-71
2022/09/30 00:27:49;;;;;;;8.40;7.13;;;;;;;9.58;100.00;100816.13;10587227;28;20039;-72
2022/09/30 00:32:49;;;;;;;7.10;6.40;;;;;;;9.47;100.00;100804.78;10585759;28;20114;-72
2022/09/30 00:37:49;;;;;;;7.72;6.45;;;;;;;9.36;100.00;100809.88;10569086;28;20126;-70
2022/09/30 00:42:50;;;;;;;8.15;6.45;;;;;;;9.19;100.00;100803.84;10550695;28;20055;-72
2022/09/30 00:48:07;;;;;;;7.93;4.95;;;;;;;9.02;100.00;100804.09;10566643;28;20036;-72
2022/09/30 00:53:17;;;;;;;5.45;5.00;;;;;;;8.83;100.00;100810.91;10568741;28;20059;-71
2022/09/30 00:58:34;;;;;;;6.55;5.60;;;;;;;8.72;100.00;100816.81;10566642;28;20044;-72
2022/09/30 01:03:40;;;;;;;5.65;4.43;;;;;;;8.61;100.00;100812.72;10585460;28;20074;-71
2022/09/30 01:08:40;;;;;;;7.57;4.97;;;;;;;8.56;100.00;100809.75;10566206;28;20028;-71
2022/09/30 01:13:41;;;;;;;8.98;5.13;;;;;;;8.43;100.00;100804.16;10549869;28;20046;-72
2022/09/30 01:18:52;;;;;;;8.18;5.35;;;;;;;8.37;100.00;100815.66;10565520;28;20062;-71
2022/09/30 01:24:30;;;;;;;6.97;4.82;;;;;;;8.31;100.00;100811.00;10566365;28;20042;-71
2022/09/30 01:29:48;;;;;;;5.10;4.70;;;;;;;8.22;100.00;100809.41;10584399;28;20031;-71
2022/09/30 01:35:22;;;;;;;7.95;5.13;;;;;;;8.05;100.00;100814.97;10583335;28;20103;-73
2022/09/30 01:40:46;;;;;;;7.07;6.07;;;;;;;8.01;100.00;100815.50;10556763;28;20480;-71
2022/09/30 01:45:57;;;;;;;8.15;5.78;;;;;;;7.89;100.00;100821.34;10565928;28;20039;-72
2022/09/30 01:51:00;;;;;;;5.35;4.88;;;;;;;7.87;100.00;100803.69;10564719;28;20146;-71
2022/09/30 01:56:13;;;;;;;10.02;6.90;;;;;;;7.87;100.00;100799.13;10564491;28;20589;-72
2022/09/30 02:01:20;;;;;;;6.18;5.57;;;;;;;7.80;100.00;100800.03;10581775;28;20027;-72
2022/09/30 02:06:24;;;;;;;6.82;4.78;;;;;;;7.73;100.00;100809.88;10564512;28;20031;-72
2022/09/30 02:11:26;;;;;;;7.00;4.97;;;;;;;7.66;100.00;100802.50;10564175;28;20036;-72
2022/09/30 02:16:48;;;;;;;6.57;5.97;;;;;;;7.59;100.00;100811.47;10563921;28;20040;-72
2022/09/30 02:22:00;;;;;;;6.78;4.75;;;;;;;7.49;100.00;100822.50;10563806;28;20035;-71
2022/09/30 02:27:01;;;;;;;5.80;4.70;;;;;;;7.43;100.00;100825.91;10581763;28;20027;-72
2022/09/30 02:32:12;;;;;;;6.68;5.38;;;;;;;7.42;100.00;100827.78;10582719;28;20122;-72
2022/09/30 02:37:16;;;;;;;8.63;4.80;;;;;;;7.33;100.00;100828.00;10580470;28;20058;-72
2022/09/30 02:42:27;;;;;;;7.18;5.63;;;;;;;7.37;100.00;100840.94;10564002;28;20048;-73
2022/09/30 02:47:52;;;;;;;6.18;5.65;;;;;;;7.28;100.00;100825.84;10580384;28;20034;-73
2022/09/30 02:53:10;;;;;;;7.70;4.72;;;;;;;7.26;100.00;100817.09;10565909;28;20027;-72
2022/09/30 02:58:13;;;;;;;7.20;5.60;;;;;;;7.44;100.00;100822.22;10580530;28;20479;-71
2022/09/30 03:03:26;;;;;;;6.78;6.18;;;;;;;7.52;100.00;100827.53;10580943;28;20059;-72
2022/09/30 03:08:26;;;;;;;6.30;5.03;;;;;;;7.60;100.00;100827.50;10579637;28;20036;-72
2022/09/30 03:13:54;;;;;;;8.70;7.57;;;;;;;7.63;100.00;100829.00;10580333;28;20096;-71
2022/09/30 03:19:05;;;;;;;7.50;5.97;;;;;;;7.73;100.00;100829.56;10570471;28;20039;-72
2022/09/30 03:24:14;;;;;;;10.15;7.95;;;;;;;7.74;100.00;100833.94;10587842;28;20040;-71
2022/09/30 03:29:25;;;;;;;8.65;7.80;;;;;;;7.81;100.00;100850.22;10588721;28;20475;-71
2022/09/30 03:34:47;;;;;;;8.43;7.63;;;;;;;7.75;100.00;100857.16;10553236;28;20031;-73
2022/09/30 03:39:56;;;;;;;14.57;7.72;;;;;;;7.64;100.00;100868.38;10571197;28;20043;-72
2022/09/30 03:45:02;;;;;;;11.32;6.28;;;;;;;7.72;100.00;100860.22;10569725;28;20459;-72
2022/09/30 03:50:05;;;;;;;13.45;8.20;;;;;;;7.77;100.00;100867.78;10569725;28;20024;-72
2022/09/30 03:55:07;;;;;;;11.13;8.55;;;;;;;7.72;100.00;100859.38;10570561;28;20039;-72
2022/09/30 04:00:08;;;;;;;13.55;9.80;;;;;;;7.83;100.00;100867.06;10587277;28;20035;-72
2022/09/30 04:05:08;;;;;;;11.30;9.77;;;;;;;7.91;100.00;100869.69;10587842;28;20031;-72
2022/09/30 04:10:09;;;;;;;10.65;7.50;;;;;;;7.85;100.00;100883.91;10586161;28;20053;-72
2022/09/30 04:15:09;;;;;;;16.45;11.30;;;;;;;7.78;100.00;100880.25;10585346;28;20463;-72
2022/09/30 04:20:11;;;;;;;14.75;11.13;;;;;;;7.89;100.00;100877.13;10571114;28;20117;-72
2022/09/30 04:25:11;;;;;;;13.48;11.13;;;;;;;8.04;100.00;100883.44;10570080;28;20077;-72
2022/09/30 04:30:12;;;;;;;13.18;11.43;;;;;;;8.21;100.00;100877.88;10585631;28;20024;-72
2022/09/30 04:35:13;;;;;;;14.27;12.93;;;;;;;8.24;100.00;100877.53;10585234;28;20535;-71
2022/09/30 04:40:14;;;;;;;20.40;16.92;;;;;;;8.29;100.00;100880.50;10550335;28;20140;-73
2022/09/30 04:45:14;;;;;;;23.98;16.48;;;;;;;8.32;100.00;100882.81;10567068;28;20042;-72
2022/09/30 04:50:15;;;;;;;27.83;16.80;;;;;;;8.28;100.00;100887.75;10566483;28;20030;-72
2022/09/30 04:55:16;;;;;;;21.52;15.90;;;;;;;8.26;100.00;100894.34;10585326;28;20032;-73
2022/09/30 05:00:16;;;;;;;21.05;15.15;;;;;;;8.20;100.00;100901.31;10566332;28;20027;-74
2022/09/30 05:05:17;;;;;;;21.75;17.40;;;;;;;8.19;100.00;100902.31;10565967;28;20038;-74
2022/09/30 05:10:17;;;;;;;20.42;18.20;;;;;;;8.39;100.00;100902.69;10584727;28;20028;-73
2022/09/30 05:15:17;;;;;;;20.65;18.42;;;;;;;8.41;100.00;100900.66;10567053;28;20039;-74
2022/09/30 05:20:18;;;;;;;20.10;16.92;;;;;;;8.43;100.00;100906.72;10566350;28;20047;-73
2022/09/30 05:25:18;;;;;;;18.33;14.10;;;;;;;8.50;100.00;100902.25;10566890;28;20133;-73
2022/09/30 05:30:19;;;;;;;21.00;17.58;;;;;;;8.56;100.00;100906.91;10565018;28;20042;-72
2022/09/30 05:35:19;;;;;;;18.58;16.67;;;;;;;8.65;100.00;100910.38;10582992;28;20058;-71
2022/09/30 05:40:19;;;;;;;17.95;16.05;;;;;;;8.69;100.00;100910.84;10581692;28;20475;-72
2022/09/30 05:45:20;;;;;;;27.73;17.63;;;;;;;8.79;100.00;100916.81;10582845;28;20059;-72
2022/09/30 05:50:21;;;;;;;23.48;19.20;;;;;;;8.80;100.00;100908.50;10582652;28;20055;-73
2022/09/30 05:55:22;;;;;;;20.92;18.55;;;;;;;8.89;100.00;100906.56;10564414;28;20036;-72
2022/09/30 06:00:22;;;;;;;20.95;17.70;;;;;;;8.97;100.00;100909.16;10581000;28;20032;-74
2022/09/30 06:05:22;;;;;;;21.13;18.92;;;;;;;9.04;100.00;100910.09;10582252;28;20493;-73
2022/09/30 06:10:23;;;;;;;22.88;18.55;;;;;;;9.23;100.00;100916.78;10581254;28;20042;-73
2022/09/30 06:15:24;;;;;;;26.95;18.10;;;;;;;9.34;100.00;100911.91;10582508;28;20028;-73
2022/09/30 06:20:25;;;;;;;20.05;17.48;;;;;;;9.51;100.00;100914.22;10581496;28;20110;-72
2022/09/30 06:25:27;;;;;;;20.08;17.42;;;;;;;9.74;100.00;100915.94;10581960;28;20020;-73
2022/09/30 06:30:27;;;;;;;25.48;16.38;;;;;;;10.17;100.00;100926.75;10546597;28;20035;-72
2022/09/30 06:35:27;;;;;;;18.73;16.25;;;;;;;11.35;100.00;100939.47;10582024;28;20043;-74
2022/09/30 06:40:28;;;;;;;21.85;17.52;;;;;;;12.38;100.00;100941.19;10580405;28;20056;-74
2022/09/30 06:45:28;;;;;;;27.38;19.80;;;;;;;13.47;100.00;100936.03;10563686;28;20463;-74
2022/09/30 06:50:29;;;;;;;22.08;14.82;;;;;;;13.76;100.00;100936.50;10563522;28;20055;-74
2022/09/30 06:55:30;;;;;;;13.70;12.27;;;;;;;13.59;100.00;100933.47;10554970;28;20443;-72
2022/09/30 07:00:30;;;;;;;12.48;11.23;;;;;;;14.39;100.00;100922.88;10589681;28;20059;-72
2022/09/30 07:05:31;;;;;;;9.90;8.07;;;;;;;14.49;100.00;100937.91;10588449;28;20036;-73
2022/09/30 07:10:31;;;;;;;9.40;7.45;;;;;;;14.74;100.00;100927.88;10589296;28;20028;-74
2022/09/30 07:15:31;;;;;;;7.45;6.75;;;;;;;14.74;100.00;100918.81;10589572;28;20036;-73
2022/09/30 07:20:32;;;;;;;6.97;6.28;;;;;;;15.17;100.00;100917.97;10588879;28;20046;-72
2022/09/30 07:25:32;;;;;;;8.80;4.45;;;;;;;16.08;100.00;100921.59;10589431;28;20126;-72
2022/09/30 07:30:33;;;;;;;12.60;6.78;;;;;;;16.64;100.00;100912.91;10587718;28;20309;-71
2022/09/30 07:35:33;;;;;;;9.75;6.68;;;;;;;17.26;100.00;100908.81;10570183;28;20050;-73
2022/09/30 07:40:33;;;;;;;4.70;4.15;;;;;;;17.49;100.00;100907.94;10587326;28;20129;-72
2022/09/30 07:45:36;;;;;;;4.88;4.38;;;;;;;17.71;100.00;100905.34;10588350;28;20053;-72
2022/09/30 07:50:38;;;;;;;7.30;4.53;;;;;;;17.97;100.00;100907.53;10569346;28;20044;-72
2022/09/30 07:55:38;;;;;;;3.88;3.60;;;;;;;18.42;100.00;100912.13;10590716;28;20035;-71
2022/09/30 08:00:38;;;;;;;4.80;4.35;;;;;;;18.68;100.00;100910.59;10599009;28;20140;-72
2022/09/30 08:05:40;;;;;;;5.38;4.70;;;;;;;18.77;100.00;100909.13;10589181;28;20039;-72
2022/09/30 08:10:40;;;;;;;3.88;3.58;;;;;;;19.08;100.00;100914.22;10570308;28;20047;-71
2022/09/30 08:15:41;;;;;;;7.05;3.58;;;;;;;19.52;100.00;100902.13;10569584;28;20471;-72
2022/09/30 08:20:41;;;;;;;3.67;3.42;;;;;;;19.49;100.00;100910.91;10568616;28;20115;-72
2022/09/30 08:25:41;;;;;;;5.82;3.35;;;;;;;19.45;100.00;100908.94;10587431;28;20043;-71
2022/09/30 08:30:42;;;;;;;2.88;2.75;;;;;;;19.88;100.00;100902.59;10567379;28;20031;-72
2022/09/30 08:35:42;;;;;;;2.35;2.10;;;;;;;20.32;100.00;100907.09;10567106;28;20031;-72
2022/09/30 08:41:10;;;;;;;2.35;2.22;;;;;;;20.54;100.00;100909.78;10566402;28;20059;-72
2022/09/30 08:46:35;;;;;;;3.42;2.90;;;;;;;20.52;100.00;100914.72;10584688;28;20382;-71
2022/09/30 08:51:37;;;;;;;2.38;2.17;;;;;;;20.39;100.00;100908.53;10563295;28;20062;-71
2022/09/30 08:56:37;;;;;;;1.95;1.85;;;;;;;21.07;100.00;100907.91;10566235;28;20402;-72
2022/09/30 09:01:40;;;;;;;1.83;1.73;;;;;;;21.27;100.00;100910.75;10595043;28;20038;-71
2022/09/30 09:06:54;;;;;;;2.28;1.88;;;;;;;21.57;100.00;100912.03;10591891;28;20108;-71
2022/09/30 09:12:08;;;;;;;2.78;1.45;;;;;;;21.41;100.00;100921.31;10586528;28;20031;-71
2022/09/30 09:17:08;;;;;;;1.80;1.17;;;;;;;;;;10584199;28;20039;-71
2022/09/30 09:22:09;;;;;;;0.90;0.90;;;;;;;21.17;100.00;100918.16;10584425;28;20035;-71
2022/09/30 09:27:16;;;;;;;1.13;1.02;;;;;;;20.95;100.00;100910.88;10567350;28;20040;-72
2022/09/30 09:32:17;;;;;;;7.95;1.98;;;;;;;21.33;100.00;100928.97;10566724;28;20352;-72
2022/09/30 09:43:18;;;;;;;1.65;1.65;;;;;;;21.85;100.00;100934.69;10586364;28;20075;-71
2022/09/30 09:48:18;;;;;;;1.92;1.80;;;;;;;21.39;100.00;100927.09;10572620;28;20077;-70
2022/09/30 09:53:43;;;;;;;1.70;1.60;;;;;;;21.89;100.00;100916.50;10573880;28;20087;-72
2022/09/30 09:59:22;;;;;;;1.73;1.60;;;;;;;22.47;100.00;100917.16;10596460;28;20063;-72
2022/09/30 10:04:26;;;;;;;2.53;2.33;;;;;;;22.79;100.00;100925.13;10593624;28;20087;-71
2022/09/30 10:09:29;;;;;;;1.30;1.30;;;;;;;21.72;100.00;100922.25;10574831;28;20027;-71
2022/09/30 10:14:29;;;;;;;1.65;1.55;;;;;;;20.58;100.00;100916.41;10593746;28;20105;-71
2022/09/30 10:19:31;;;;;;;1.90;1.80;;;;;;;21.77;100.00;100917.59;10586496;28;20105;-71
2022/09/30 10:24:31;;;;;;;3.60;1.63;;;;;;;22.45;100.00;100909.13;10567353;28;20031;-72
2022/09/30 10:29:33;;;;;;;1.77;1.67;;;;;;;23.05;100.00;100914.88;10600489;28;20454;-71
2022/09/30 10:34:38;;;;;;;2.92;1.67;;;;;;;22.80;100.00;100910.19;10579753;28;20038;-71
2022/09/30 10:39:41;;;;;;;1.70;1.60;;;;;;;23.17;100.00;100909.03;10580484;28;20055;-70
2022/09/30 10:44:42;;;;;;;4.30;2.25;;;;;;;22.53;100.00;100910.53;10596268;28;20048;-72
2022/09/30 10:49:57;;;;;;;3.13;2.83;;;;;;;22.46;100.00;100910.81;10578501;28;20034;-71
2022/09/30 10:54:58;;;;;;;8.38;2.38;;;;;;;22.92;100.00;100907.97;10595410;28;20050;-71
2022/09/30 11:00:06;;;;;;;3.88;2.20;;;;;;;23.23;100.00;100913.44;10594937;28;20024;-73
2022/09/30 11:05:32;;;;;;;3.42;2.63;;;;;;;22.56;100.00;100903.59;10578289;28;20473;-71
2022/09/30 11:10:46;;;;;;;2.17;2.08;;;;;;;23.34;100.00;100894.88;10576744;28;20463;-71
2022/09/30 11:16:09;;;;;;;8.70;2.47;;;;;;;21.96;100.00;100893.09;10594376;28;20031;-71
2022/09/30 11:21:14;;;;;;;3.25;2.25;;;;;;;20.73;100.00;100894.50;10579222;28;20069;-71
2022/09/30 11:26:56;;;;;;;2.88;2.50;;;;;;;21.02;100.00;100889.44;10595906;28;20031;-72
2022/09/30 11:32:15;;;;;;;2.20;2.05;;;;;;;21.10;100.00;100877.09;10564963;28;20047;-72
2022/09/30 11:37:23;;;;;;;1.60;1.50;;;;;;;22.55;100.00;100883.44;10576069;28;20459;-71
2022/09/30 11:42:30;;;;;;;2.58;2.47;;;;;;;23.27;100.00;100867.53;10571514;28;20043;-72
2022/09/30 11:47:53;;;;;;;4.43;2.33;;;;;;;22.00;100.00;100858.34;10588490;28;20031;-70
2022/09/30 11:53:02;;;;;;;2.90;2.13;;;;;;;21.56;100.00;100855.25;10570218;28;20111;-72
2022/09/30 11:58:03;;;;;;;3.50;2.20;;;;;;;23.13;100.00;100852.69;10587842;28;20028;-72
2022/09/30 12:03:11;;;;;;;2.85;2.65;;;;;;;22.95;100.00;100848.63;10588412;28;20035;-70
2022/09/30 12:08:17;;;;;;;2.15;2.05;;;;;;;23.17;100.00;100862.91;10569073;28;20386;-71
2022/09/30 12:13:25;;;;;;;;;;;;;;;22.94;100.00;100852.47;10586810;28;20344;-71
2022/09/30 12:18:29;;;;;;;7.47;3.40;;;;;;;23.58;100.00;100846.09;10568020;28;19916;-71
2022/09/30 12:23:32;;;;;;;3.22;2.95;;;;;;;23.47;100.00;100829.84;10568274;28;20031;-73
2022/09/30 12:34:18;;;;;;;2.38;2.15;;;;;;;22.16;100.00;100836.31;10570659;28;20020;-72
2022/09/30 12:39:37;;;;;;;1.95;1.85;;;;;;;21.61;100.00;100830.47;10569466;28;20052;-72
2022/09/30 12:45:05;;;;;;;4.10;2.40;;;;;;;21.23;100.00;100826.19;10587278;28;20073;-72
2022/09/30 12:50:07;;;;;;;2.70;2.50;;;;;;;21.23;100.00;100820.69;10585327;28;20031;-72
2022/09/30 12:55:18;;;;;;;2.78;2.58;;;;;;;20.61;100.00;100812.16;10549802;28;20050;-72
2022/09/30 13:00:26;;;;;;;2.85;2.65;;;;;;;20.01;100.00;100823.53;10536611;28;20051;-72
2022/09/30 13:05:26;;;;;;;4.10;2.10;;;;;;;20.04;100.00;100799.09;10567004;28;20130;-72
2022/09/30 13:10:27;;;;;;;3.45;2.15;;;;;;;20.43;100.00;100804.31;10585001;28;20028;-71
2022/09/30 13:15:28;;;;;;;1.33;1.27;;;;;;;20.40;100.00;100789.16;10566877;28;20035;-71
2022/09/30 13:21:14;;;;;;;2.28;1.75;;;;;;;20.01;100.00;100798.81;10588404;28;20087;-72
2022/09/30 13:26:21;;;;;;;2.13;2.03;;;;;;;20.07;100.00;100804.09;10587536;28;20451;-72
2022/09/30 13:31:22;;;;;;;1.83;1.73;;;;;;;20.35;100.00;100791.88;10583704;28;20110;-72
2022/09/30 13:36:27;;;;;;;1.60;1.50;;;;;;;20.09;100.00;100804.63;10567050;28;20047;-72
2022/09/30 13:41:27;;;;;;;12.13;2.45;;;;;;;20.04;100.00;100796.34;10583573;28;20096;-72
2022/09/30 13:46:50;;;;;;;7.03;2.25;;;;;;;20.27;100.00;100788.81;10564541;28;20392;-72
2022/09/30 13:51:51;;;;;;;1.25;1.25;;;;;;;20.41;100.00;100788.06;10583337;28;20115;-72
2022/09/30 13:56:52;;;;;;;2.83;1.73;;;;;;;19.45;100.00;100799.06;10548691;28;20391;-72
2022/09/30 14:02:01;;;;;;;2.40;2.25;;;;;;;19.52;100.00;100789.53;10564887;28;20027;-72
2022/09/30 14:07:05;;;;;;;3.33;2.35;;;;;;;19.06;100.00;100769.00;10584410;28;20026;-73
2022/09/30 14:12:12;;;;;;;3.42;3.13;;;;;;;18.96;100.00;100768.91;10583147;28;20119;-72
2022/09/30 14:17:14;;;;;;;2.72;2.35;;;;;;;19.26;100.00;100758.25;10583551;28;20077;-73
2022/09/30 14:22:14;;;;;;;3.40;3.13;;;;;;;19.39;100.00;100747.94;10585553;28;20039;-72
2022/09/30 14:27:21;;;;;;;3.92;2.80;;;;;;;19.12;100.00;100743.28;10565412;28;20044;-73
2022/09/30 14:32:28;;;;;;;;;;;;;;;18.64;100.00;100750.38;10567402;28;20382;-73
2022/09/30 14:37:34;;;;;;;6.78;4.47;;;;;;;18.68;100.00;100735.06;10550155;28;19958;-73
2022/09/30 14:42:37;;;;;;;;;;;;;;;18.71;100.00;100742.78;10584868;28;20044;-72
2022/09/30 14:47:41;;;;;;;4.57;4.18;;;;;;;18.91;100.00;100749.63;10567218;28;19959;-73
2022/09/30 14:52:44;;;;;;;8.00;3.55;;;;;;;18.39;100.00;100741.81;10552444;28;20028;-72
2022/09/30 14:57:44;;;;;;;3.72;3.42;;;;;;;17.93;100.00;100741.13;10568601;28;20057;-72
2022/09/30 15:02:45;;;;;;;9.32;4.30;;;;;;;17.80;100.00;100737.63;10586993;28;20031;-71
2022/09/30 15:07:46;;;;;;;4.88;4.30;;;;;;;17.62;100.00;100737.88;10590998;28;20032;-74
2022/09/30 15:12:47;;;;;;;5.22;4.15;;;;;;;17.35;100.00;100727.53;10593709;28;20035;-73
2022/09/30 15:17:50;;;;;;;9.23;5.28;;;;;;;17.05;100.00;100737.94;10581867;28;20067;-72
2022/09/30 15:22:51;;;;;;;5.95;3.92;;;;;;;17.03;100.00;100742.81;10598659;28;20035;-73
2022/09/30 15:27:51;;;;;;;6.45;5.57;;;;;;;16.89;100.00;100736.81;10578857;28;20034;-72
2022/09/30 15:33:04;;;;;;;5.63;4.38;;;;;;;16.58;100.00;100735.31;10578683;28;20060;-73
2022/09/30 15:38:09;;;;;;;4.35;3.92;;;;;;;16.62;100.00;100737.31;10561546;28;20479;-73
2022/09/30 15:43:14;;;;;;;5.40;4.45;;;;;;;16.58;100.00;100730.69;10599417;28;20056;-72
2022/09/30 15:48:15;;;;;;;4.97;4.30;;;;;;;16.54;100.00;100721.31;10596580;28;20039;-72
2022/09/30 15:53:16;;;;;;;5.82;4.75;;;;;;;16.49;100.00;100719.28;10597273;28;20073;-73
2022/09/30 15:58:36;;;;;;;4.22;3.83;;;;;;;16.24;100.00;100716.84;10579136;28;20054;-73
2022/09/30 16:03:37;;;;;;;4.43;3.83;;;;;;;16.03;100.00;100707.34;10579769;28;20035;-73
2022/09/30 16:08:43;;;;;;;4.95;3.95;;;;;;;15.90;100.00;100707.59;10598768;28;20043;-73
2022/09/30 16:13:44;;;;;;;3.67;3.38;;;;;;;15.72;100.00;100700.34;10597905;28;20024;-73
2022/09/30 16:18:45;;;;;;;3.35;3.13;;;;;;;15.76;100.00;100704.28;10597097;28;20463;-72
2022/09/30 16:23:45;;;;;;;2.95;2.63;;;;;;;15.63;100.00;100687.25;10595966;28;20031;-72
2022/09/30 16:28:46;;;;;;;3.75;3.35;;;;;;;15.56;100.00;100690.91;10578562;28;20473;-73
2022/09/30 16:33:47;;;;;;;2.30;2.10;;;;;;;15.45;100.00;100688.19;10577539;28;20420;-73
2022/09/30 16:38:48;;;;;;;3.33;3.05;;;;;;;15.42;100.00;100680.47;10594670;28;20047;-73
2022/09/30 16:43:48;;;;;;;2.40;2.20;;;;;;;15.38;100.00;100679.25;10595257;28;20048;-73
2022/09/30 16:48:48;;;;;;;2.83;2.63;;;;;;;15.33;100.00;100679.97;10596345;28;20040;-72
2022/09/30 16:53:49;;;;;;;2.38;2.17;;;;;;;15.21;100.00;100673.66;10595537;28;20024;-73
2022/09/30 16:58:49;;;;;;;1.92;1.80;;;;;;;15.23;100.00;100677.00;10597588;28;20035;-73
2022/09/30 17:03:51;;;;;;;4.45;2.15;;;;;;;15.21;100.00;100668.22;10599031;28;20040;-73
2022/09/30 17:08:54;;;;;;;7.45;2.72;;;;;;;15.25;100.00;100666.66;10578125;28;20032;-73
2022/09/30 17:13:54;;;;;;;4.13;2.13;;;;;;;15.30;100.00;100656.72;10595947;28;20032;-73
2022/09/30 17:18:55;;;;;;;4.00;2.72;;;;;;;15.07;100.00;100643.03;10578516;28;20063;-74
2022/09/30 17:23:56;;;;;;;3.20;2.92;;;;;;;14.98;100.00;100641.72;10579410;28;20470;-73
2022/09/30 17:28:57;;;;;;;8.57;2.90;;;;;;;14.95;100.00;100634.00;10577697;28;20122;-73
2022/09/30 17:33:57;;;;;;;5.13;3.28;;;;;;;14.83;100.00;100626.59;10593876;28;20043;-73
2022/09/30 17:38:58;;;;;;;2.75;2.47;;;;;;;14.80;100.00;100632.50;10594895;28;20064;-73
2022/09/30 17:44:00;;;;;;;4.00;3.33;;;;;;;14.83;100.00;100631.22;10594027;28;20070;-73
2022/09/30 17:49:01;;;;;;;4.47;4.10;;;;;;;14.77;100.00;100651.22;10573482;28;20046;-73
2022/09/30 17:54:01;;;;;;;3.72;3.40;;;;;;;14.86;100.00;100641.66;10577230;28;20040;-71
2022/09/30 17:59:02;;;;;;;4.97;3.10;;;;;;;14.85;100.00;100626.38;10595049;28;20364;-73
2022/09/30 18:04:02;;;;;;;4.75;3.45;;;;;;;14.80;100.00;100620.78;10576928;28;20089;-73
2022/09/30 18:09:03;;;;;;;2.85;2.47;;;;;;;14.79;100.00;100606.34;10586747;28;20077;-72
2022/09/30 18:14:03;;;;;;;2.95;2.72;;;;;;;14.84;100.00;100595.56;10581938;28;20081;-74
2022/09/30 18:19:04;;;;;;;2.40;2.20;;;;;;;14.71;100.00;100578.56;10564232;28;20039;-72
2022/09/30 18:24:05;;;;;;;2.78;2.58;;;;;;;14.64;100.00;100582.25;10563818;28;20031;-73
2022/09/30 18:29:06;;;;;;;1.70;1.70;;;;;;;14.64;100.00;100568.63;10546759;28;20123;-74
2022/09/30 18:34:07;;;;;;;4.00;2.83;;;;;;;14.65;100.00;100547.66;10581483;28;20432;-72
2022/09/30 18:39:08;;;;;;;9.35;3.13;;;;;;;14.64;100.00;100555.00;10579777;28;20074;-73
2022/09/30 18:44:09;;;;;;;3.85;3.10;;;;;;;14.61;100.00;100551.88;10563665;28;20052;-73
2022/09/30 18:49:10;;;;;;;2.83;2.30;;;;;;;14.57;100.00;100535.16;10569713;28;20031;-74
2022/09/30 18:54:12;;;;;;;2.55;2.33;;;;;;;14.58;100.00;100531.41;10574084;28;20040;-74
2022/09/30 18:59:14;;;;;;;1.85;1.75;;;;;;;14.53;100.00;100516.81;10590150;28;20032;-73
2022/09/30 19:04:15;;;;;;;6.35;2.97;;;;;;;14.54;100.00;100513.84;10589395;28;20172;-73
2022/09/30 19:09:15;;;;;;;3.55;2.28;;;;;;;14.49;100.00;100502.78;10589685;28;20535;-73
2022/09/30 19:14:15;;;;;;;2.63;2.17;;;;;;;14.51;96.75;100510.75;10590456;28;20032;-73
2022/09/30 19:19:17;;;;;;;4.45;2.53;;;;;;;14.56;100.00;100511.72;10572362;28;20122;-74
2022/09/30 19:24:17;;;;;;;2.45;2.25;;;;;;;14.57;100.00;100507.09;10572538;28;20071;-73
2022/09/30 19:29:17;;;;;;;16.67;2.33;;;;;;;14.47;93.05;100504.06;10588140;28;20039;-75
2022/09/30 19:34:19;;;;;;;3.25;2.70;;;;;;;14.47;100.00;100488.56;10590049;28;20035;-74
2022/09/30 19:39:20;;;;;;;2.13;2.03;;;;;;;14.43;96.53;100471.84;10589878;28;20040;-71
2022/09/30 19:44:21;;;;;;;4.85;2.55;;;;;;;14.47;100.00;100458.59;10588339;28;20059;-74
2022/09/30 19:49:22;;;;;;;7.90;3.45;;;;;;;14.38;92.67;100452.63;10588436;28;20446;-74
2022/09/30 19:54:23;;;;;;;3.28;3.08;;;;;;;14.41;100.00;100446.72;10589387;28;20039;-75
2022/09/30 19:59:23;;;;;;;3.05;2.85;;;;;;;14.26;100.00;100449.06;10575155;28;20371;-74
2022/09/30 20:04:23;;;;;;;2.97;2.30;;;;;;;13.92;100.00;100437.00;10590318;28;20038;-75
2022/09/30 20:09:24;;;;;;;1.95;1.85;;;;;;;13.48;98.80;100428.16;10589788;28;20081;-74
2022/09/30 20:20:33;;;;;;;4.40;2.25;;;;;;;13.39;100.00;100426.81;10586782;28;20044;-75
2022/09/30 20:25:04;;;;;;;3.22;3.00;;;;;;;13.30;100.00;100414.56;10586771;28;20364;-76
2022/09/30 20:30:05;;;;;;;6.22;3.83;;;;;;;13.18;100.00;100404.44;10586931;28;20123;-75
2022/09/30 20:35:06;;;;;;;3.60;2.92;;;;;;;12.96;100.00;100395.06;10568030;28;20055;-75
2022/09/30 20:40:10;;;;;;;3.55;2.67;;;;;;;12.88;100.00;100387.19;10587385;28;20046;-73
2022/09/30 20:45:11;;;;;;;3.20;2.00;;;;;;;12.67;100.00;100389.28;10568237;28;20524;-72
2022/09/30 20:50:33;;;;;;;5.65;2.45;;;;;;;12.64;100.00;100397.91;10584684;28;20040;-71
2022/09/30 20:55:38;;;;;;;4.32;3.13;;;;;;;12.45;100.00;100393.47;10553977;28;20023;-71
2022/09/30 21:00:39;;;;;;;2.95;2.55;;;;;;;12.30;100.00;100393.78;10566377;28;20084;-70
2022/09/30 21:05:40;;;;;;;3.83;2.40;;;;;;;12.13;100.00;100395.41;10584372;28;20474;-69
2022/09/30 21:10:40;;;;;;;2.58;2.40;;;;;;;11.90;100.00;100379.69;10583839;28;20032;-68
2022/09/30 21:15:41;;;;;;;3.33;2.65;;;;;;;11.76;100.00;100382.44;10566110;28;20148;-68
2022/09/30 21:20:41;;;;;;;2.95;2.75;;;;;;;11.56;100.00;100371.72;10567584;28;20085;-69
2022/09/30 21:25:42;;;;;;;4.85;3.78;;;;;;;11.46;100.00;100357.81;10582998;28;20088;-68
2022/09/30 21:30:42;;;;;;;4.10;3.13;;;;;;;11.31;100.00;100349.94;10583181;28;20028;-68
2022/09/30 21:35:43;;;;;;;4.07;3.55;;;;;;;11.22;100.00;100318.72;10583260;28;20119;-68
2022/09/30 21:40:46;;;;;;;5.72;3.22;;;;;;;11.06;100.00;100316.50;10565313;28;20451;-70
2022/09/30 21:45:46;;;;;;;3.53;3.15;;;;;;;11.16;100.00;100311.44;10582624;28;20062;-69
2022/09/30 21:50:47;;;;;;;3.78;2.60;;;;;;;11.18;100.00;100298.53;10582640;28;20082;-69
2022/09/30 21:55:47;;;;;;;7.68;3.28;;;;;;;11.13;100.00;100298.31;10582761;28;20032;-68
2022/09/30 22:00:48;;;;;;;3.85;3.50;;;;;;;11.11;100.00;100276.03;10581138;28;20084;-67
2022/09/30 22:05:56;;;;;;;4.75;4.10;;;;;;;11.07;100.00;100283.78;10582395;28;20035;-68
2022/09/30 22:10:56;;;;;;;6.50;4.47;;;;;;;11.07;100.00;100291.06;10565798;28;20040;-68
2022/09/30 22:16:01;;;;;;;7.60;4.10;;;;;;;11.04;100.00;100277.94;10583326;28;20043;-69
2022/09/30 22:21:03;;;;;;;12.18;4.95;;;;;;;11.02;100.00;100275.47;10581867;28;20442;-69
2022/09/30 22:26:15;;;;;;;4.35;4.05;;;;;;;11.01;100.00;100264.81;10565378;28;20043;-70
2022/09/30 22:31:20;;;;;;;5.82;5.32;;;;;;;11.01;100.00;100251.28;10563725;28;20374;-70
2022/09/30 22:41:41;;;;;;;10.32;4.95;;;;;;;10.89;100.00;100200.50;10580263;28;20063;-70
2022/09/30 22:46:41;;;;;;;10.13;4.60;;;;;;;10.94;100.00;100191.72;10581538;28;20513;-70
2022/09/30 22:51:42;;;;;;;13.20;5.40;;;;;;;10.93;100.00;100185.47;10580727;28;20073;-70
2022/09/30 22:56:42;;;;;;;4.65;4.25;;;;;;;10.92;100.00;100191.13;10582900;28;20081;-70
2022/09/30 23:01:43;;;;;;;6.40;5.30;;;;;;;10.89;100.00;100172.59;10581099;28;20058;-70
2022/09/30 23:06:47;;;;;;;10.80;5.20;;;;;;;10.91;100.00;100170.47;10582830;28;20043;-70
2022/09/30 23:11:49;;;;;;;9.20;5.03;;;;;;;10.93;100.00;100182.75;10580363;28;20063;-71
2022/09/30 23:16:50;;;;;;;7.18;3.97;;;;;;;10.82;100.00;100167.22;10562547;28;20036;-70
2022/09/30 23:21:50;;;;;;;6.13;4.50;;;;;;;10.84;100.00;100159.69;10580203;28;20460;-70
2022/09/30 23:26:51;;;;;;;6.65;4.07;;;;;;;10.82;100.00;100134.72;10579606;28;20143;-69